createdAt,value
2023-04-13T00:00:09.050Z,100.00
2023-04-13T00:02:39.117Z,100.00
2023-04-13T00:05:11.003Z,100.00
2023-04-13T00:07:38.646Z,100.00
2023-04-13T00:10:09.996Z,100.00
2023-04-13T00:12:37.549Z,100.00
2023-04-13T00:15:05.747Z,100.00
2023-04-13T00:17:33.480Z,100.00
2023-04-13T00:20:00.332Z,100.00
2023-04-13T00:22:30.229Z,100.00
2023-04-13T00:24:57.662Z,100.00
2023-04-13T00:27:27.592Z,100.00
2023-04-13T00:29:56.905Z,100.00
2023-04-13T00:32:24.708Z,100.00
2023-04-13T00:34:53.075Z,100.00
2023-04-13T00:37:21.600Z,100.00
2023-04-13T00:39:48.247Z,100.00
2023-04-13T00:42:18.144Z,100.00
2023-04-13T00:44:44.969Z,100.00
2023-04-13T00:47:12.230Z,100.00
2023-04-13T00:49:38.987Z,100.00
2023-04-13T00:52:08.365Z,100.00
2023-04-13T00:54:35.660Z,100.00
2023-04-13T00:57:02.150Z,100.00
2023-04-13T00:59:30.228Z,100.00
2023-04-13T01:01:56.921Z,100.00
2023-04-13T01:04:25.605Z,100.00
2023-04-13T01:07:18.637Z,100.00
2023-04-13T01:10:18.629Z,100.00
2023-04-13T01:13:07.131Z,100.00
2023-04-13T01:15:40.978Z,100.00
2023-04-13T01:18:09.901Z,100.00
2023-04-13T01:20:38.435Z,100.00
2023-04-13T01:23:09.678Z,100.00
2023-04-13T01:25:57.552Z,100.00
2023-04-13T01:28:26.106Z,100.00
2023-04-13T01:30:53.986Z,100.00
2023-04-13T01:33:22.898Z,100.00
2023-04-13T01:35:50.118Z,100.00
2023-04-13T01:38:24.497Z,100.00
2023-04-13T01:40:53.185Z,100.00
2023-04-13T01:43:20.903Z,100.00
2023-04-13T01:46:10.148Z,100.00
2023-04-13T01:49:02.459Z,100.00
2023-04-13T01:51:50.382Z,100.00
2023-04-13T01:54:25.770Z,100.00
2023-04-13T01:56:53.926Z,100.00
2023-04-13T01:59:22.471Z,100.00
2023-04-13T02:01:49.173Z,100.00
2023-04-13T02:04:15.939Z,100.00
2023-04-13T02:06:44.449Z,100.00
2023-04-13T02:09:11.097Z,100.00
2023-04-13T02:11:38.010Z,100.00
2023-04-13T02:14:05.862Z,100.00
2023-04-13T02:16:33.075Z,100.00
2023-04-13T02:19:00.279Z,100.00
2023-04-13T02:21:27.031Z,100.00
2023-04-13T02:23:53.692Z,100.00
2023-04-13T02:26:22.422Z,100.00
2023-04-13T02:28:51.255Z,100.00
2023-04-13T02:31:19.756Z,100.00
2023-04-13T02:33:46.653Z,100.00
2023-04-13T02:36:13.605Z,100.00
2023-04-13T02:38:48.655Z,100.00
2023-04-13T02:41:25.629Z,100.00
2023-04-13T02:43:52.377Z,100.00
2023-04-13T02:46:23.808Z,100.00
2023-04-13T02:48:56.864Z,100.00
2023-04-13T02:51:25.441Z,100.00
2023-04-13T02:53:52.584Z,100.00
2023-04-13T02:56:19.187Z,100.00
2023-04-13T02:58:49.176Z,100.00
2023-04-13T03:01:18.142Z,100.00
2023-04-13T03:03:45.791Z,100.00
2023-04-13T03:06:12.521Z,100.00
2023-04-13T03:08:46.303Z,100.00
2023-04-13T03:11:18.770Z,100.00
2023-04-13T03:13:58.580Z,100.00
2023-04-13T03:16:25.644Z,100.00
2023-04-13T03:18:52.274Z,100.00
2023-04-13T03:21:19.090Z,100.00
2023-04-13T03:23:58.022Z,100.00
2023-04-13T03:26:25.909Z,100.00
2023-04-13T03:28:54.547Z,100.00
2023-04-13T03:31:22.357Z,100.00
2023-04-13T03:33:51.153Z,100.00
2023-04-13T03:36:17.823Z,100.00
2023-04-13T03:38:44.377Z,100.00
2023-04-13T03:41:11.642Z,100.00
2023-04-13T03:43:44.260Z,100.00
2023-04-13T03:46:13.271Z,100.00
2023-04-13T03:48:42.213Z,100.00
2023-04-13T03:51:11.550Z,100.00
2023-04-13T03:53:47.381Z,100.00
2023-04-13T03:56:16.145Z,100.00
2023-04-13T03:58:42.710Z,100.00
2023-04-13T04:01:11.382Z,100.00
2023-04-13T04:03:46.073Z,100.00
2023-04-13T04:06:13.192Z,100.00
2023-04-13T04:08:45.448Z,100.00
2023-04-13T04:11:24.432Z,100.00
2023-04-13T04:13:51.638Z,100.00
2023-04-13T04:16:19.091Z,100.00
2023-04-13T04:18:51.448Z,100.00
2023-04-13T04:21:21.671Z,100.00
2023-04-13T04:23:48.646Z,100.00
2023-04-13T04:26:20.382Z,100.00
2023-04-13T04:29:01.771Z,100.00
2023-04-13T04:31:36.859Z,100.00
2023-04-13T04:34:06.169Z,100.00
2023-04-13T04:36:36.357Z,100.00
2023-04-13T04:39:04.760Z,100.00
2023-04-13T04:41:39.707Z,100.00
2023-04-13T04:44:08.172Z,100.00
2023-04-13T04:46:41.666Z,100.00
2023-04-13T04:49:12.177Z,100.00
2023-04-13T04:51:39.494Z,100.00
2023-04-13T04:54:07.356Z,100.00
2023-04-13T04:56:33.966Z,100.00
2023-04-13T04:59:00.779Z,100.00
2023-04-13T05:01:44.591Z,100.00
2023-04-13T05:04:13.114Z,100.00
2023-04-13T05:06:42.278Z,100.00
2023-04-13T05:09:12.483Z,100.00
2023-04-13T05:11:44.492Z,100.00
2023-04-13T05:14:12.841Z,100.00
2023-04-13T05:16:40.177Z,100.00
2023-04-13T05:19:14.100Z,100.00
2023-04-13T05:22:01.079Z,100.00
2023-04-13T05:24:31.040Z,100.00
2023-04-13T05:26:58.829Z,100.00
2023-04-13T05:29:25.435Z,100.00
2023-04-13T05:31:52.133Z,100.00
2023-04-13T05:34:19.312Z,100.00
2023-04-13T05:37:02.806Z,100.00
2023-04-13T05:39:30.822Z,100.00
2023-04-13T05:41:57.586Z,100.00
2023-04-13T05:44:25.697Z,100.00
2023-04-13T05:46:52.629Z,100.00
2023-04-13T05:49:19.471Z,98.81
2023-04-13T05:51:46.495Z,99.40
2023-04-13T05:54:14.059Z,99.68
2023-04-13T05:56:47.211Z,99.50
2023-04-13T05:59:14.385Z,99.10
2023-04-13T06:01:41.076Z,98.84
2023-04-13T06:04:09.501Z,98.28
2023-04-13T06:06:36.260Z,97.53
2023-04-13T06:09:05.352Z,97.10
2023-04-13T06:11:31.971Z,97.24
2023-04-13T06:14:00.204Z,95.97
2023-04-13T06:16:27.084Z,95.81
2023-04-13T06:18:54.565Z,94.81
2023-04-13T06:21:21.422Z,95.32
2023-04-13T06:23:47.984Z,94.74
2023-04-13T06:26:25.383Z,93.48
2023-04-13T06:28:55.241Z,93.83
2023-04-13T06:31:23.353Z,92.64
2023-04-13T06:33:51.615Z,92.33
2023-04-13T06:36:23.995Z,91.97
2023-04-13T06:38:52.289Z,91.69
2023-04-13T06:41:20.380Z,91.31
2023-04-13T06:43:48.663Z,90.81
2023-04-13T06:46:35.554Z,91.38
2023-04-13T06:49:09.153Z,90.21
2023-04-13T06:51:37.853Z,89.94
2023-04-13T06:54:04.545Z,90.11
2023-04-13T06:56:31.246Z,89.77
2023-04-13T06:59:02.596Z,89.91
2023-04-13T07:01:31.303Z,89.47
2023-04-13T07:03:59.052Z,86.07
2023-04-13T07:06:26.520Z,87.10
2023-04-13T07:08:53.206Z,86.94
2023-04-13T07:11:20.597Z,87.11
2023-04-13T07:13:47.505Z,86.44
2023-04-13T07:16:15.905Z,85.18
2023-04-13T07:18:45.738Z,84.95
2023-04-13T07:21:12.319Z,84.19
2023-04-13T07:23:57.799Z,83.56
2023-04-13T07:26:24.522Z,83.37
2023-04-13T07:28:51.156Z,83.24
2023-04-13T07:31:20.272Z,83.65
2023-04-13T07:33:49.887Z,82.15
2023-04-13T07:36:23.490Z,81.33
2023-04-13T07:38:52.886Z,80.72
2023-04-13T07:41:22.585Z,82.32
2023-04-13T07:43:52.935Z,82.23
2023-04-13T07:46:20.553Z,79.89
2023-04-13T07:48:49.370Z,80.87
2023-04-13T07:51:23.760Z,79.95
2023-04-13T07:53:52.250Z,80.92
2023-04-13T07:56:19.631Z,79.56
2023-04-13T07:58:46.627Z,80.36
2023-04-13T08:01:13.204Z,79.20
2023-04-13T08:03:39.817Z,78.51
2023-04-13T08:06:13.539Z,77.93
2023-04-13T08:08:40.209Z,76.75
2023-04-13T08:11:08.659Z,76.87
2023-04-13T08:13:35.841Z,77.61
2023-04-13T08:16:02.895Z,76.07
2023-04-13T08:18:32.157Z,74.07
2023-04-13T08:20:59.529Z,72.98
2023-04-13T08:23:28.522Z,70.42
2023-04-13T08:25:57.083Z,70.99
2023-04-13T08:28:23.958Z,72.50
2023-04-13T08:30:50.578Z,69.76
2023-04-13T08:33:17.432Z,71.42
2023-04-13T08:35:44.304Z,72.41
2023-04-13T08:38:12.561Z,72.79
2023-04-13T08:40:44.196Z,72.86
2023-04-13T08:43:15.901Z,72.98
2023-04-13T08:45:42.896Z,73.54
2023-04-13T08:48:13.979Z,73.56
2023-04-13T08:50:42.766Z,72.76
2023-04-13T08:53:10.485Z,70.90
2023-04-13T08:55:45.846Z,72.05
2023-04-13T08:58:13.798Z,72.63
2023-04-13T09:00:41.817Z,71.42
2023-04-13T09:03:14.661Z,72.72
2023-04-13T09:05:54.481Z,71.43
2023-04-13T09:08:22.722Z,70.35
2023-04-13T09:10:51.477Z,69.95
2023-04-13T09:13:18.483Z,68.70
2023-04-13T09:15:47.447Z,70.42
2023-04-13T09:18:33.638Z,71.36
2023-04-13T09:21:06.332Z,68.43
2023-04-13T09:23:32.808Z,66.74
2023-04-13T09:26:06.923Z,65.94
2023-04-13T09:28:33.765Z,67.20
2023-04-13T09:31:06.393Z,66.19
2023-04-13T09:33:48.782Z,64.60
2023-04-13T09:36:17.568Z,64.70
2023-04-13T09:38:47.926Z,64.21
2023-04-13T09:41:14.541Z,63.97
2023-04-13T09:43:41.203Z,64.04
2023-04-13T09:46:14.622Z,65.80
2023-04-13T09:48:41.828Z,66.78
2023-04-13T09:51:09.817Z,66.98
2023-04-13T09:53:43.494Z,66.85
2023-04-13T09:56:10.094Z,65.33
2023-04-13T09:58:47.552Z,65.54
2023-04-13T10:01:17.026Z,62.60
2023-04-13T10:03:44.156Z,63.15
2023-04-13T10:06:10.764Z,62.92
2023-04-13T10:08:39.057Z,63.12
2023-04-13T10:11:12.032Z,62.47
2023-04-13T10:13:45.951Z,60.70
2023-04-13T10:16:18.404Z,60.17
2023-04-13T10:19:01.611Z,59.43
2023-04-13T10:21:35.387Z,60.40
2023-04-13T10:26:37.405Z,58.86
2023-04-13T10:29:04.872Z,58.35
2023-04-13T10:31:38.921Z,59.68
2023-04-13T10:34:09.756Z,59.02
2023-04-13T10:36:43.895Z,59.44
2023-04-13T10:39:11.003Z,59.44
2023-04-13T10:41:38.070Z,60.82
2023-04-13T10:44:07.523Z,62.46
2023-04-13T10:46:36.080Z,60.56
2023-04-13T10:49:03.979Z,61.08
2023-04-13T10:51:44.023Z,60.13
2023-04-13T10:54:12.787Z,58.85
2023-04-13T10:56:40.523Z,59.92
2023-04-13T10:59:07.555Z,58.99
2023-04-13T11:01:35.781Z,57.80
2023-04-13T11:04:06.784Z,57.43
2023-04-13T11:06:37.266Z,55.61
2023-04-13T11:09:06.807Z,57.37
2023-04-13T11:11:37.217Z,56.03
2023-04-13T11:14:03.934Z,52.20
2023-04-13T11:16:31.210Z,54.13
2023-04-13T11:19:02.623Z,55.46
2023-04-13T11:21:29.895Z,51.52
2023-04-13T11:23:56.700Z,54.01
2023-04-13T11:26:39.871Z,55.12
2023-04-13T11:29:17.382Z,55.33
2023-04-13T11:31:44.072Z,55.96
2023-04-13T11:34:13.924Z,55.72
2023-04-13T11:36:41.111Z,53.57
2023-04-13T11:39:10.260Z,52.93
2023-04-13T11:41:41.625Z,54.86
2023-04-13T11:44:12.653Z,55.41
2023-04-13T11:46:39.286Z,52.63
2023-04-13T11:49:06.515Z,53.13
2023-04-13T11:51:33.811Z,54.37
2023-04-13T11:54:01.571Z,54.25
2023-04-13T11:56:28.779Z,54.65
2023-04-13T11:58:55.418Z,53.41
2023-04-13T12:01:26.112Z,52.49
2023-04-13T12:04:07.939Z,52.23
2023-04-13T12:06:42.210Z,51.16
2023-04-13T12:09:13.340Z,51.37
2023-04-13T12:11:46.722Z,51.64
2023-04-13T12:19:23.387Z,48.68
2023-04-13T12:21:53.104Z,49.65
2023-04-13T12:24:20.059Z,50.05
2023-04-13T12:29:16.350Z,49.35
2023-04-13T12:31:45.486Z,49.80
2023-04-13T12:34:12.145Z,49.18
2023-04-13T12:36:38.696Z,47.35
2023-04-13T12:39:06.667Z,47.55
2023-04-13T12:41:33.647Z,47.76
2023-04-13T12:44:00.396Z,48.89
2023-04-13T12:46:27.961Z,48.91
2023-04-13T12:48:54.921Z,49.53
2023-04-13T12:51:21.559Z,49.20
2023-04-13T12:53:48.173Z,48.34
2023-04-13T12:56:14.772Z,47.61
2023-04-13T12:58:41.529Z,46.90
2023-04-13T13:01:08.716Z,47.85
2023-04-13T13:03:36.867Z,49.78
2023-04-13T13:06:05.327Z,49.80
2023-04-13T13:08:34.939Z,49.50
2023-04-13T13:11:02.800Z,48.15
2023-04-13T13:13:29.365Z,47.77
2023-04-13T13:15:55.951Z,47.01
2023-04-13T13:18:22.596Z,47.24
2023-04-13T13:20:53.794Z,47.68
2023-04-13T13:23:20.379Z,48.71
2023-04-13T13:26:04.119Z,49.11
2023-04-13T13:28:33.341Z,49.10
2023-04-13T13:31:00.061Z,49.88
2023-04-13T13:33:26.877Z,49.03
2023-04-13T13:35:53.373Z,48.44
2023-04-13T13:38:19.994Z,48.87
2023-04-13T13:40:46.662Z,49.40
2023-04-13T13:43:13.932Z,49.70
2023-04-13T13:45:41.201Z,49.55
2023-04-13T13:48:07.927Z,48.33
2023-04-13T13:50:49.154Z,46.21
2023-04-13T13:53:15.822Z,46.59
2023-04-13T13:55:42.516Z,46.55
2023-04-13T13:58:09.051Z,45.18
2023-04-13T14:00:35.623Z,45.69
2023-04-13T14:03:02.368Z,45.02
2023-04-13T14:05:29.056Z,45.29
2023-04-13T14:07:55.869Z,45.39
2023-04-13T14:10:22.398Z,45.33
2023-04-13T14:12:50.790Z,45.89
2023-04-13T14:15:17.600Z,46.05
2023-04-13T14:17:48.384Z,44.95
2023-04-13T14:20:22.377Z,44.34
2023-04-13T14:22:48.904Z,44.65
2023-04-13T14:25:15.471Z,44.67
2023-04-13T14:27:42.222Z,44.99
2023-04-13T14:30:09.351Z,44.07
2023-04-13T14:32:36.223Z,44.46
2023-04-13T14:35:03.349Z,44.95
2023-04-13T14:37:29.998Z,44.80
2023-04-13T14:39:56.614Z,45.94
2023-04-13T14:42:24.835Z,45.55
2023-04-13T14:44:51.886Z,44.68
2023-04-13T14:47:19.516Z,45.11
2023-04-13T14:49:47.234Z,45.79
2023-04-13T14:52:15.074Z,44.12
2023-04-13T14:54:41.878Z,45.29
2023-04-13T14:57:09.774Z,44.75
2023-04-13T14:59:37.427Z,45.00
2023-04-13T15:02:04.279Z,45.06
2023-04-13T15:04:31.478Z,44.73
2023-04-13T15:06:58.755Z,44.98
2023-04-13T15:09:25.620Z,45.39
2023-04-13T15:11:52.562Z,43.84
2023-04-13T15:14:19.245Z,44.97
2023-04-13T15:16:46.266Z,45.82
2023-04-13T15:19:13.410Z,44.84
2023-04-13T15:21:40.110Z,45.99
2023-04-13T15:24:08.509Z,47.23
2023-04-13T15:26:40.685Z,47.01
2023-04-13T15:29:10.344Z,45.21
2023-04-13T15:31:38.592Z,46.29
2023-04-13T15:34:06.474Z,46.54
2023-04-13T15:36:33.081Z,46.39
2023-04-13T15:39:00.534Z,46.41
2023-04-13T15:41:27.816Z,47.43
2023-04-13T15:43:55.670Z,47.07
2023-04-13T15:46:22.333Z,47.03
2023-04-13T15:48:50.466Z,48.39
2023-04-13T15:51:17.101Z,47.06
2023-04-13T15:53:43.581Z,45.47
2023-04-13T15:56:10.388Z,44.59
2023-04-13T15:58:37.017Z,42.75
2023-04-13T16:01:06.150Z,41.09
2023-04-13T16:03:34.155Z,39.89
2023-04-13T16:06:01.730Z,38.78
2023-04-13T16:08:29.170Z,39.14
2023-04-13T16:10:55.701Z,36.51
2023-04-13T16:13:22.898Z,35.73
2023-04-13T16:15:55.833Z,33.55
2023-04-13T16:18:32.263Z,32.53
2023-04-13T16:21:02.348Z,31.23
2023-04-13T16:23:29.529Z,30.89
2023-04-13T16:25:56.318Z,29.19
2023-04-13T16:28:22.990Z,28.99
2023-04-13T16:30:49.551Z,29.03
2023-04-13T16:33:16.472Z,28.05
2023-04-13T16:35:43.038Z,28.55
2023-04-13T16:38:09.571Z,27.57
2023-04-13T16:40:36.383Z,26.78
2023-04-13T16:43:05.339Z,27.24
2023-04-13T16:45:32.619Z,27.39
2023-04-13T16:47:59.382Z,27.29
2023-04-13T16:50:31.460Z,29.23
2023-04-13T16:52:58.991Z,30.37
2023-04-13T16:55:28.178Z,30.04
2023-04-13T16:57:55.414Z,29.74
2023-04-13T17:00:22.305Z,29.81
2023-04-13T17:02:49.248Z,31.37
2023-04-13T17:05:16.202Z,31.93
2023-04-13T17:07:44.232Z,34.11
2023-04-13T17:10:14.008Z,35.43
2023-04-13T17:12:40.809Z,36.65
2023-04-13T17:15:08.134Z,37.80
2023-04-13T17:17:35.185Z,38.94
2023-04-13T17:20:02.090Z,39.70
2023-04-13T17:22:28.703Z,40.63
2023-04-13T17:24:55.633Z,41.62
2023-04-13T17:27:22.309Z,42.51
2023-04-13T17:29:49.782Z,43.13
2023-04-13T17:32:16.668Z,43.32
2023-04-13T17:34:44.662Z,44.01
2023-04-13T17:37:11.818Z,44.82
2023-04-13T17:39:42.173Z,45.04
2023-04-13T17:42:09.713Z,45.73
2023-04-13T17:44:36.428Z,45.78
2023-04-13T17:47:03.014Z,46.30
2023-04-13T17:49:29.652Z,46.54
2023-04-13T17:51:59.500Z,47.16
2023-04-13T17:54:27.201Z,47.60
2023-04-13T17:56:54.718Z,48.02
2023-04-13T17:59:21.864Z,48.25
2023-04-13T18:01:52.105Z,48.67
2023-04-13T18:04:19.174Z,49.34
2023-04-13T18:06:46.028Z,49.42
2023-04-13T18:09:12.890Z,50.01
2023-04-13T18:11:39.950Z,50.61
2023-04-13T18:14:09.059Z,51.54
2023-04-13T18:16:36.200Z,52.37
2023-04-13T18:19:03.073Z,52.79
2023-04-13T18:21:30.153Z,52.48
2023-04-13T18:23:56.917Z,53.80
2023-04-13T18:26:23.717Z,54.09
2023-04-13T18:28:50.585Z,54.37
2023-04-13T18:31:17.376Z,53.58
2023-04-13T18:33:44.530Z,53.63
2023-04-13T18:36:18.011Z,54.50
2023-04-13T18:38:45.366Z,54.55
2023-04-13T18:41:12.654Z,55.87
2023-04-13T18:43:39.618Z,56.51
2023-04-13T18:46:07.592Z,57.17
2023-04-13T18:48:34.740Z,57.16
2023-04-13T18:51:02.869Z,56.93
2023-04-13T18:53:30.427Z,57.53
2023-04-13T18:55:58.263Z,57.77
2023-04-13T18:58:24.797Z,58.58
2023-04-13T19:00:51.551Z,58.86
2023-04-13T19:03:18.232Z,59.10
2023-04-13T19:05:44.817Z,59.77
2023-04-13T19:08:13.372Z,60.56
2023-04-13T19:10:42.273Z,61.95
2023-04-13T19:13:09.173Z,62.23
2023-04-13T19:15:36.210Z,62.20
2023-04-13T19:18:04.397Z,62.22
2023-04-13T19:20:31.247Z,62.73
2023-04-13T19:22:57.860Z,63.45
2023-04-13T19:25:24.396Z,62.98
2023-04-13T19:27:51.063Z,63.48
2023-04-13T19:30:18.895Z,63.25
2023-04-13T19:32:47.150Z,63.73
2023-04-13T19:35:13.920Z,63.94
2023-04-13T19:37:40.812Z,64.01
2023-04-13T19:40:13.520Z,64.11
2023-04-13T19:42:45.182Z,64.29
2023-04-13T19:45:15.480Z,64.23
2023-04-13T19:47:42.468Z,64.44
2023-04-13T19:50:11.240Z,64.09
2023-04-13T19:52:39.196Z,64.53
2023-04-13T19:55:08.535Z,64.98
2023-04-13T19:57:36.889Z,64.73
2023-04-13T20:00:07.388Z,64.46
2023-04-13T20:02:34.028Z,65.98
2023-04-13T20:05:00.817Z,66.31
2023-04-13T20:07:27.383Z,65.69
2023-04-13T20:09:53.880Z,65.76
2023-04-13T20:12:21.061Z,66.00
2023-04-13T20:14:48.284Z,66.28
2023-04-13T20:17:16.285Z,66.09
2023-04-13T20:19:42.870Z,66.66
2023-04-13T20:22:10.158Z,67.55
2023-04-13T20:24:36.753Z,67.56
2023-04-13T20:27:03.276Z,68.12
2023-04-13T20:29:29.856Z,68.15
2023-04-13T20:31:56.418Z,69.02
2023-04-13T20:34:24.238Z,69.56
2023-04-13T20:36:50.823Z,69.42
2023-04-13T20:39:25.192Z,69.98
2023-04-13T20:41:55.910Z,69.99
2023-04-13T20:44:23.856Z,70.69
2023-04-13T20:46:54.657Z,71.14
2023-04-13T20:49:25.838Z,71.89
2023-04-13T20:51:53.694Z,72.14
2023-04-13T20:54:20.228Z,72.68
2023-04-13T20:56:48.411Z,72.93
2023-04-13T20:59:18.350Z,73.14
2023-04-13T21:01:45.733Z,73.77
2023-04-13T21:04:12.521Z,74.26
2023-04-13T21:06:40.334Z,73.82
2023-04-13T21:09:08.147Z,74.54
2023-04-13T21:11:34.955Z,74.69
2023-04-13T21:14:01.873Z,74.65
2023-04-13T21:16:28.851Z,75.18
2023-04-13T21:18:55.931Z,75.55
2023-04-13T21:21:23.601Z,76.46
2023-04-13T21:23:51.255Z,76.24
2023-04-13T21:26:17.900Z,76.55
2023-04-13T21:28:44.534Z,76.60
2023-04-13T21:31:11.413Z,77.11
2023-04-13T21:33:37.983Z,77.17
2023-04-13T21:38:44.244Z,78.08
2023-04-13T21:41:18.218Z,78.23
2023-04-13T21:43:44.993Z,78.74
2023-04-13T21:46:13.258Z,79.14
2023-04-13T21:48:40.687Z,78.86
2023-04-13T21:51:08.997Z,79.00
2023-04-13T21:53:36.516Z,79.33
2023-04-13T21:56:03.900Z,79.84
2023-04-13T21:58:39.480Z,80.49
2023-04-13T22:01:07.191Z,80.55
2023-04-13T22:03:37.993Z,81.00
2023-04-13T22:06:07.515Z,81.15
2023-04-13T22:08:34.284Z,81.09
2023-04-13T22:11:01.346Z,81.50
2023-04-13T22:13:28.317Z,81.65
2023-04-13T22:15:55.366Z,82.24
2023-04-13T22:18:22.069Z,82.27
2023-04-13T22:20:48.679Z,82.22
2023-04-13T22:23:15.628Z,82.86
2023-04-13T22:25:42.379Z,82.75
2023-04-13T22:28:08.908Z,83.38
2023-04-13T22:30:36.291Z,83.57
2023-04-13T22:33:02.890Z,83.48
2023-04-13T22:35:29.471Z,83.70
2023-04-13T22:37:56.024Z,83.92
2023-04-13T22:40:22.526Z,84.51
2023-04-13T22:42:49.024Z,84.74
2023-04-13T22:45:15.696Z,85.14
2023-04-13T22:47:42.292Z,85.19
2023-04-13T22:50:09.191Z,85.23
2023-04-13T22:52:35.797Z,85.09
2023-04-13T22:55:02.400Z,85.52
2023-04-13T22:57:28.928Z,85.78
2023-04-13T22:59:55.432Z,86.02
2023-04-13T23:02:22.082Z,85.77
2023-04-13T23:04:48.676Z,86.58
2023-04-13T23:07:15.303Z,86.48
2023-04-13T23:09:42.037Z,86.78
2023-04-13T23:12:08.506Z,87.00
2023-04-13T23:14:34.997Z,87.55
2023-04-13T23:17:01.506Z,87.82
2023-04-13T23:19:28.032Z,88.39
2023-04-13T23:21:54.651Z,88.44
2023-04-13T23:24:21.173Z,88.37
2023-04-13T23:26:47.695Z,89.09
2023-04-13T23:29:16.101Z,89.07
2023-04-13T23:31:42.755Z,88.91
2023-04-13T23:34:09.341Z,89.52
2023-04-13T23:36:36.557Z,90.05
2023-04-13T23:39:04.273Z,90.42
2023-04-13T23:41:30.803Z,90.62
2023-04-13T23:43:57.333Z,90.58
2023-04-13T23:46:24.505Z,90.57
2023-04-13T23:48:51.113Z,91.02
2023-04-13T23:51:17.656Z,90.93
2023-04-13T23:53:44.235Z,90.79
2023-04-13T23:56:10.733Z,91.20
2023-04-13T23:58:37.226Z,90.86
